ADDS TAF Board (Experimental) INFO Settings
IDs: Format: Expanded Condensed

KIAH - Houston/Bush Intl, TX, US

Issued at 1254 UTC 24 May 2015
Updated at: 1311 UTC 24 May 2015
Time1253Z 24/14Z 24/15Z 24/16Z 24/17Z 24/18Z 24/19Z 24/20Z 24/21Z 24/22Z 24/23Z 25/00Z 25/01Z 25/02Z
Type OBS PRVL PRVL PRVL PRVL PRVL PRVL PRVL PRVL PRVL PRVL PRVL PRVL PRVL
VIS 6 >6 >6 >6 >6 >6 >6 >6 >6 5 5 5 5 5
CIG 100 30 30 30 30 30 30 30 30 15 15 15 15 15
Cover OVC OVC OVC OVC OVC OVC OVC OVC OVC BKN BKN BKN BKN BKN
FltCat VFR MVFR MVFR MVFR MVFR MVFR MVFR MVFR MVFR MVFR MVFR MVFR MVFR MVFR
WX RA BR VCSH VCSH VCSH VCSH VCSH VCSH VCSH VCSH -SHRA BR -SHRA BR -SHRA BR -SHRA BR -SHRA BR
WDir 170 150 150 150 150 150 150 150 150 170 170 170 170 170
WSpd 7 9 9 9 9 9 9 9 9 11 11 11 11 11
WGst -- -- -- -- -- -- -- -- -- -- -- -- -- --
R08/26
XWnd -7 -8 -8 -8 -8 -8 -8 -8 -8 -11 -11 -11 -11 -11
HWnd 1 5 5 5 5 5 5 5 5 2 2 2 2 2
R09/27
XWnd -7 -8 -8 -8 -8 -8 -8 -8 -8 -11 -11 -11 -11 -11
HWnd 1 5 5 5 5 5 5 5 5 2 2 2 2 2
R15/33
XWnd -2 0 0 0 0 0 0 0 0 -3 -3 -3 -3 -3
HWnd 7 9 9 9 9 9 9 9 9 10 10 10 10 10

NOTE: TEMPO conditions in [brackets]. Keep in mind TEMPO conditions might be better (lower impact) than prevailing conditions.

Raw TAF
KIAH 241254Z 2413/2518 18006KT 6SM -TSRA BR BKN035CB BKN100 BKN250
  FM241400 15009KT P6SM VCSH BKN030 OVC080
  FM242200 17011KT 5SM -SHRA BR SCT007 BKN015
  FM250300 16008KT P6SM BKN050
  FM250600 16012KT P6SM VCSH BKN025 BKN050
  FM250900 16012KT 5SM TSRA BKN020CB OVC250


Raw METAR
KIAH 241253Z 17007KT 6SM RA BR SCT035 BKN100 OVC250 21/20 A2994 RMK AO2 PK WND 19033/1158 TSE41 SLP139 OCNL LTGICCC DSNT NE TS MOV NE CB DSNT NE MOV NE P0054 T02110200 $
KIAH 241242Z 18006KT 6SM RA BR BKN034 BKN100 BKN250 21/20 A2994 RMK AO2 PK WND 19033/1158 TSE41 OCNL LTGICCC DSNT NE TS MOV NE CB DSNT NE MOV NE P0051 $
KIAH 241227Z 19005KT 4SM -TSRA BR FEW018 BKN030CB OVC100 21/20 A2992 RMK AO2 PK WND 19033/1158 FRQ LTGICCCCG NW-N-NE TS NW-N-NE MOV N P0046 $
KIAH 241216Z 18008KT 2SM -TSRA BR FEW018 BKN025CB OVC070 22/21 A2993 RMK AO2 PK WND 19033/1158 CONS LTGICCCCG ALQDS TS ALQDS MOV N P0043 $
KIAH 241210Z 19009G24KT 1SM +TSRA BR SCT020 BKN025CB OVC060 22/21 A2993 RMK AO2 PK WND 19033/1158 CONS LTGICCCCG OHD TS OHD MOV N P0041 $
KIAH 241203Z 17014G33KT 3/4SM +TSRA BR SCT014 BKN025CB OVC050 22/21 A2993 RMK AO2 PK WND 19033/1158 CONS LTGICCCCG OHD TS OHD MOV N P0004 $
KIAH 241158Z 19022G33KT 1SM +TSRA SCT020 BKN035CB OVC080 26/23 A2995 RMK AO2 PK WND 19033/1158 PRESRR CONS LTGICCCCG OHD TS OHD MOV N P0000
KIAH 241153Z 14016G23KT 9SM -TSRA FEW020 SCT038CB BKN100 26/22 A2991 RMK AO2 TSB18RAB50 SLP127 FRQ LTGICCC SW-W-NW TS SW-W-NW MOV N P0000 60000 70072 T02610222 10261 20250 56008
KIAH 241128Z 14015KT 9SM TS FEW015 SCT040CB BKN100 26/22 A2990 RMK AO2 TSB18 OCNL LTGICCC SW-W-NW TS SW-W-NW MOV N
KIAH 241119Z 14012KT 9SM TS FEW015 SCT040CB BKN250 26/22 A2990 RMK AO2 TSB18 OCNL LTGICCC VC W TS VC W MOV N
KIAH 241053Z 15013KT 10SM FEW025 SCT045 BKN250 26/22 A2992 RMK AO2 SLP130 OCNL LTGIC DSNT SW-W T02560222

METAR Board
Radar Display
Forecast Discussion

TAF Board Legend

Potential Impact
Threat None Slight Moderate High
Visibility (sm) ≥5.1 5.1>X≥3 3>X≥1 <1
Ceiling (100 ft) ≥30.1 30.1>X≥10 10>X≥5 <5
Wind Speed (kt) <10 10≤X<20 20≤X<30 ≥30
Wind Gust (kt) <15 15≤X<25 25≤X<35 ≥35
Weather No Wx Reported VCTS,-TS,-FZRA,SN TS,FZRA +TS,+FZRA,+SN